Terminal Aerodrome Forecast
Issued by NWS Twin Cities, MN

Home | Current Version | Previous Version | Graphics & Text | Print | Product List | Glossary On
Versions: 1 2 3 4 5 6 7 8 9 10 11 12 13 14 15 16 17 18 19 20 21 22 23 24
603
FTUS43 KMPX 202320
TAFMSP
TAF
KMSP 202320Z 2100/2206 34005KT P6SM SCT100 SCT300
     FM210900 34012KT P6SM FEW250
     FM220300 01010KT P6SM SCT150=

USA.gov is the U.S. government's official web portal to all federal, state and local government web resources and services.